Terminal Aerodrome Forecast
Issued by NWS

Home | Current Version | Previous Version | Text Only | Print | Product List | Glossary On
Versions: 1 2 3 4 5 6 7 8 9 10 11 12 13 14 15 16 17 18 19 20 21 22 23 24 25
000
FTUS43 KLSX 261700
TAFUIN
TAF
KUIN 261721Z 2618/2718 19010KT P6SM SCT030 BKN120
      TEMPO 2618/2621 BKN030
     FM262100 25012KT P6SM SCT030
     FM270100 32010KT P6SM BKN025
     FM271500 35008KT P6SM SCT030=

USA.gov is the U.S. government's official web portal to all federal, state and local government web resources and services.